This is the latest recevied weather packets stored in our database for station/object CE3TL-WX. If no packets are shown the sender has not sent any weather packets the latest 10 day(s).
| Time | Temp. | Humidity | Pressure | Rain* | Wind** | Luminosity | Snow |
|---|---|---|---|---|---|---|---|
| 1777593925 | 15.56° C | 67% | 1022.5 hPa | - | - | - | - |
| 1777593391 | 16.11° C | 65% | 1022.2 hPa | - | - | - | - |
| 1777592857 | 16.11° C | 65% | 1022 hPa | - | - | - | - |
| 1777592323 | 16.11° C | 65% | 1021.9 hPa | - | - | - | - |
| 1777591789 | 16.67° C | 65% | 1021.8 hPa | - | - | - | - |
| 1777591255 | 16.67° C | 65% | 1021.6 hPa | - | - | - | - |
| 1777590721 | 16.67° C | 64% | 1021.6 hPa | - | - | - | - |
| 1777590186 | 17.22° C | 63% | 1021.5 hPa | - | - | - | - |
| 1777589653 | 17.22° C | 62% | 1021.3 hPa | - | - | - | - |
| 1777589119 | 17.22° C | 61% | 1021.2 hPa | - | - | - | - |
| 1777588587 | 17.78° C | 58% | 1021 hPa | - | - | - | - |
| 1777588051 | 17.78° C | 58% | 1020.9 hPa | - | - | - | - |
| 1777587517 | 17.78° C | 59% | 1020.9 hPa | - | - | - | - |
| 1777586983 | 18.33° C | 57% | 1020.8 hPa | - | - | - | - |
| 1777586449 | 18.33° C | 57% | 1020.6 hPa | - | - | - | - |
| 1777585915 | 18.89° C | 57% | 1020.5 hPa | - | - | - | - |
| 1777585382 | 19.44° C | 55% | 1020.4 hPa | - | - | - | - |
| 1777584848 | 19.44° C | 54% | 1020.4 hPa | - | - | - | - |
| 1777584315 | 20° C | 50% | 1020.1 hPa | - | - | - | - |
| 1777583780 | 20° C | 49% | 1019.8 hPa | - | - | - | - |
| 1777583246 | 20.56° C | 48% | 1019.7 hPa | - | - | - | - |
| 1777582713 | 20.56° C | 47% | 1019.7 hPa | - | - | - | - |
| 1777582178 | 20.56° C | 48% | 1019.5 hPa | - | - | - | - |
| 1777581645 | 21.11° C | 48% | 1019.5 hPa | - | - | - | - |
| 1777581111 | 21.11° C | 48% | 1019.4 hPa | - | - | - | - |
* Rain since midnight (hover to see other rain measurements)
** Current wind speed in m/s (hover to see current wind gust speed)